Date,TemperatureHighF,TemperatureAvgF,TemperatureLowF,DewpointHighF,DewpointAvgF,DewpointLowF,HumidityHigh,HumidityAvg,HumidityLow,PressureMaxIn,PressureMinIn,WindSpeedMaxMPH,WindSpeedAvgMPH,GustSpeedMaxMPH,PrecipitationSumIn
2013-4-1,62.0,48.4,38.0,49.0,38.2,8.0,100,72,27,29.89,29.59,14,4,28,0.15
2013-4-2,43.0,37.4,31.0,16.0,9.7,4.0,51,32,21,30.07,29.88,12,6,28,0.01
2013-4-3,46.0,38.1,32.0,14.0,9.5,5.0,47,31,21,30.28,30.06,15,7,32,0.00
2013-4-4,52.0,40.2,31.0,34.0,20.3,11.0,75,46,26,30.38,30.09,13,2,32,0.00
2013-4-5,62.0,48.6,41.0,36.0,25.1,12.0,70,44,16,30.09,29.69,12,4,24,0.00
2013-4-6,51.0,41.9,35.0,30.0,13.7,0.0,67,35,13,30.31,29.97,10,4,24,0.00
2013-4-7,54.0,45.9,38.0,45.0,36.3,29.0,92,70,51,30.31,30.01,6,2,21,0.00
2013-4-8,70.0,54.6,42.0,47.0,43.2,39.0,100,70,32,30.07,29.97,3,1,14,0.00
2013-4-9,79.0,64.3,48.0,52.0,44.5,37.0,100,57,23,30.01,29.90,10,3,24,0.00
2013-4-10,66.0,57.5,50.0,57.0,49.1,40.0,100,75,44,29.96,29.82,7,2,26,0.45
2013-4-11,58.0,54.1,47.0,58.0,49.7,39.0,100,86,62,30.06,29.78,8,3,26,0.46
2013-4-12,47.0,43.1,40.0,44.0,40.0,34.0,100,90,69,30.06,29.72,17,9,36,0.50
2013-4-13,55.0,47.2,40.0,43.0,39.1,33.0,100,76,43,29.96,29.74,6,2,36,0.05
2013-4-14,55.0,50.4,46.0,44.0,31.4,22.0,86,52,28,30.22,29.96,14,4,28,0.00
2013-4-15,53.0,46.6,40.0,39.0,31.8,25.0,75,57,44,30.38,30.22,7,2,28,0.00
2013-4-16,62.0,52.6,44.0,54.0,47.1,37.0,96,81,69,30.38,30.12,6,2,14,0.00
2013-4-17,68.0,60.1,54.0,58.0,41.4,31.0,100,56,25,30.28,30.10,8,2,17,0.00
2013-4-18,59.0,52.3,47.0,52.0,44.5,38.0,95,76,50,30.36,30.12,6,3,17,0.00
2013-4-19,70.0,61.4,54.0,64.0,59.9,52.0,100,95,77,30.12,29.65,6,2,14,0.00
2013-4-20,62.0,54.5,48.0,62.0,37.2,22.0,100,59,25,30.25,29.65,10,4,24,0.11
2013-4-21,53.0,44.6,35.0,31.0,21.5,16.0,60,41,24,30.62,30.25,12,3,26,0.01
2013-4-22,51.0,45.2,37.0,39.0,32.9,28.0,82,63,44,30.67,30.52,13,6,26,0.00
2013-4-23,48.0,45.8,44.0,40.0,38.5,35.0,80,76,71,30.53,30.10,7,2,26,0.00
2013-4-24,65.0,52.1,40.0,52.0,45.0,39.0,100,79,51,30.11,29.85,5,1,26,0.00
2013-4-25,65.0,55.5,48.0,54.0,33.8,19.0,100,51,17,30.25,29.87,9,3,28,0.00
2013-4-26,66.0,54.7,39.0,39.0,32.1,23.0,91,48,20,30.40,30.25,8,2,28,0.00
2013-4-27,67.0,56.0,45.0,40.0,29.3,16.0,64,38,16,30.42,30.27,8,2,17,0.00
2013-4-28,64.0,53.4,42.0,51.0,41.0,30.0,93,65,29,30.32,30.21,3,1,12,0.00
2013-4-29,57.0,54.4,52.0,53.0,47.5,40.0,92,78,61,30.24,30.19,5,1,10,0.00
2013-4-30,62.0,55.9,48.0,47.0,40.5,27.0,81,59,26,30.34,30.21,8,3,17,0.00